Time;durP1;ratioP1;P1;durP2;ratioP2;P2;SDS_P1;SDS_P2;PMS_P1;PMS_P2;Temp;Humidity;BMP_temperature;BMP_pressure;BME280_temperature;BME280_humidity;BME280_pressure;Samples;Min_cycle;Max_cycle;Signal;HPM_P1;HPM_P2
2022/05/27 00:00:18;;;;;;;17.70;12.30;;;15.70;86.70;;;;;;4993958;28;20186;-82
2022/05/27 00:02:50;;;;;;;14.00;11.23;;;15.80;86.60;;;;;;5002526;28;20633;-80
2022/05/27 00:05:20;;;;;;;15.47;12.33;;;15.90;86.00;;;;;;5007649;28;20209;-80
2022/05/27 00:07:48;;;;;;;13.90;11.30;;;16.00;85.50;;;;;;4996990;28;20207;-80
2022/05/27 00:10:15;;;;;;;13.23;11.03;;;16.10;85.20;;;;;;4993057;28;20360;-87
2022/05/27 00:12:43;;;;;;;13.00;11.60;;;16.30;85.20;;;;;;4993140;28;20205;-81
2022/05/27 00:15:11;;;;;;;17.33;11.23;;;16.30;85.00;;;;;;4992512;28;20203;-81
2022/05/27 00:17:38;;;;;;;13.87;10.63;;;16.50;84.50;;;;;;4993162;28;20179;-85
2022/05/27 00:20:06;;;;;;;13.27;11.07;;;16.60;84.40;;;;;;4993421;28;20274;-85
2022/05/27 00:22:34;;;;;;;14.43;12.00;;;16.60;83.60;;;;;;4993720;28;20253;-83
2022/05/27 00:25:02;;;;;;;13.60;10.70;;;16.70;83.20;;;;;;5000239;28;20177;-80
2022/05/27 00:27:30;;;;;;;15.27;10.37;;;16.80;83.00;;;;;;4998672;28;20185;-78
2022/05/27 00:29:57;;;;;;;11.93;9.87;;;17.00;82.60;;;;;;4993803;28;20219;-78
2022/05/27 00:32:25;;;;;;;12.97;10.97;;;17.00;82.10;;;;;;5007026;28;20194;-80
2022/05/27 00:34:52;;;;;;;14.37;11.07;;;17.00;82.20;;;;;;4988128;28;20238;-78
2022/05/27 00:37:22;;;;;;;12.47;9.70;;;17.20;81.80;;;;;;4992408;28;20196;-79
2022/05/27 00:39:50;;;;;;;17.83;10.97;;;17.30;81.50;;;;;;4991440;28;20205;-84
2022/05/27 00:42:17;;;;;;;14.53;9.60;;;17.40;81.60;;;;;;4996823;28;20238;-78
2022/05/27 00:44:44;;;;;;;14.83;9.63;;;17.50;80.80;;;;;;4995293;28;20205;-77
2022/05/27 00:47:17;;;;;;;12.10;9.77;;;17.50;80.10;;;;;;4993090;28;20194;-84
2022/05/27 00:49:49;;;;;;;14.80;9.63;;;17.60;79.90;;;;;;4990095;28;20224;-83
2022/05/27 00:52:20;;;;;;;15.93;10.20;;;17.70;80.30;;;;;;4994984;28;20220;-84
2022/05/27 00:54:48;;;;;;;14.47;8.67;;;17.80;79.20;;;;;;4994567;28;20663;-83
2022/05/27 00:57:32;;;;;;;18.13;8.60;;;17.90;79.00;;;;;;4996471;28;20408;-81
2022/05/27 01:00:09;;;;;;;12.13;8.33;;;17.90;78.30;;;;;;4996090;28;20174;-83
2022/05/27 01:02:37;;;;;;;9.67;7.97;;;18.20;78.00;;;;;;4996595;28;20212;-81
2022/05/27 01:05:07;;;;;;;12.73;7.47;;;18.30;77.40;;;;;;4995847;28;20185;-83
2022/05/27 01:07:35;;;;;;;11.03;7.80;;;18.50;76.60;;;;;;5004890;28;20249;-82
2022/05/27 01:10:05;;;;;;;9.83;7.10;;;18.60;76.20;;;;;;4998660;28;20648;-80
2022/05/27 01:13:00;;;;;;;14.50;8.37;;;18.80;76.10;;;;;;4998781;28;20735;-81
2022/05/27 01:15:49;;;;;;;10.97;6.93;;;18.80;75.70;;;;;;4998739;28;20232;-77
2022/05/27 01:22:04;;;;;;;18.10;7.17;;;19.10;74.10;;;;;;4997690;28;20272;-81
2022/05/27 01:24:55;;;;;;;10.90;6.63;;;19.30;74.50;;;;;;4995474;28;20185;-81
2022/05/27 01:27:25;;;;;;;14.17;6.37;;;19.30;73.70;;;;;;4995636;28;20197;-78
2022/05/27 01:30:29;;;;;;;8.87;6.10;;;19.30;73.20;;;;;;4997502;28;20216;-82
2022/05/27 01:33:01;;;;;;;8.77;4.87;;;19.60;72.00;;;;;;4994185;28;20671;-83
2022/05/27 01:36:06;;;;;;;19.73;5.00;;;19.60;71.30;;;;;;4995027;28;20252;-81
2022/05/27 01:38:37;;;;;;;7.17;5.20;;;19.70;71.50;;;;;;4996201;28;20174;-82
2022/05/27 01:41:14;;;;;;;8.37;5.83;;;19.80;70.40;;;;;;4993922;28;20644;-83
2022/05/27 01:44:17;;;;;;;10.43;6.80;;;19.80;71.00;;;;;;4996057;28;20177;-82
2022/05/27 01:46:46;;;;;;;12.37;6.30;;;19.90;71.20;;;;;;4988640;28;20264;-80
2022/05/27 01:49:19;;;;;;;7.43;5.80;;;20.20;70.40;;;;;;4995132;28;20217;-83
2022/05/27 01:51:54;;;;;;;6.67;5.30;;;20.30;69.80;;;;;;5010356;28;20210;-85
2022/05/27 01:54:43;;;;;;;10.10;5.27;;;20.70;68.10;;;;;;4995150;28;20196;-84
2022/05/27 01:57:19;;;;;;;13.13;5.63;;;20.80;68.40;;;;;;4987673;28;20170;-79
2022/05/27 01:59:49;;;;;;;9.70;5.73;;;20.80;68.60;;;;;;4995640;28;20268;-81
2022/05/27 02:02:22;;;;;;;10.83;5.57;;;20.80;68.60;;;;;;4995681;28;20189;-81
2022/05/27 02:05:01;;;;;;;12.50;5.90;;;20.90;68.90;;;;;;4995231;28;20658;-84
2022/05/27 02:07:57;;;;;;;11.23;5.47;;;21.00;67.30;;;;;;4994876;28;20181;-78
2022/05/27 02:10:30;;;;;;;6.10;4.47;;;21.00;67.00;;;;;;4995055;28;20272;-84
2022/05/27 02:13:12;;;;;;;10.33;5.00;;;21.00;66.50;;;;;;4994362;28;20182;-84
2022/05/27 02:15:43;;;;;;;9.63;5.03;;;21.20;67.50;;;;;;4995041;28;20196;-83
2022/05/27 02:18:22;;;;;;;9.23;4.80;;;21.20;65.50;;;;;;5000193;28;20177;-82
2022/05/27 02:20:57;;;;;;;12.00;5.30;;;21.40;65.60;;;;;;4995097;28;20178;-80
2022/05/27 02:23:44;;;;;;;8.83;4.70;;;21.60;65.10;;;;;;4976387;28;20174;-83
2022/05/27 02:26:17;;;;;;;8.17;4.60;;;21.70;65.00;;;;;;4986643;28;20222;-80
2022/05/27 02:28:49;;;;;;;9.87;5.17;;;22.00;64.60;;;;;;5004407;28;20260;-82
2022/05/27 02:31:24;;;;;;;10.07;4.53;;;22.20;64.10;;;;;;4992383;28;20182;-83
2022/05/27 02:36:49;;;;;;;5.23;3.87;;;22.30;63.20;;;;;;5009728;28;20247;-80
2022/05/27 02:39:16;;;;;;;11.03;5.17;;;22.20;63.20;;;;;;4991506;28;20190;-78
2022/05/27 02:41:57;;;;;;;9.13;4.53;;;22.20;63.60;;;;;;4994568;28;20266;-78
2022/05/27 02:44:36;;;;;;;7.00;4.27;;;22.20;63.60;;;;;;4992396;28;20262;-80
2022/05/27 02:47:06;;;;;;;8.87;4.27;;;22.30;64.80;;;;;;4994386;28;20178;-83
2022/05/27 02:49:46;;;;;;;7.13;4.70;;;22.30;63.40;;;;;;4994544;28;20261;-81
2022/05/27 02:52:22;;;;;;;11.73;4.33;;;22.90;62.30;;;;;;4994568;28;20174;-79
2022/05/27 02:54:59;;;;;;;9.60;4.40;;;22.80;62.40;;;;;;4994890;28;20200;-79
2022/05/27 02:58:02;;;;;;;11.37;4.40;;;22.70;63.10;;;;;;4994953;28;20258;-78
2022/05/27 03:00:36;;;;;;;8.63;4.53;;;23.00;62.30;;;;;;4992210;28;20186;-78
2022/05/27 03:03:04;;;;;;;8.43;4.13;;;22.90;61.60;;;;;;4994423;28;20162;-80
2022/05/27 03:05:52;;;;;;;13.20;4.77;;;23.10;62.00;;;;;;4994893;28;20170;-78
2022/05/27 03:08:22;;;;;;;12.63;4.30;;;23.20;61.20;;;;;;4994916;28;20509;-78
2022/05/27 03:11:13;;;;;;;8.80;4.40;;;23.20;61.70;;;;;;4994317;28;20186;-78
2022/05/27 03:13:55;;;;;;;9.50;4.30;;;23.30;61.10;;;;;;5013263;28;20657;-79
2022/05/27 03:16:54;;;;;;;9.30;3.63;;;23.00;60.60;;;;;;5014246;28;20173;-79
2022/05/27 03:19:21;;;;;;;5.67;3.63;;;23.30;60.40;;;;;;5013540;28;20623;-79
2022/05/27 03:21:55;;;;;;;10.77;4.10;;;23.50;60.90;;;;;;5003102;28;20181;-80
2022/05/27 03:24:43;;;;;;;9.33;3.63;;;23.60;60.20;;;;;;4994506;28;20177;-79
2022/05/27 03:27:43;;;;;;;10.20;3.80;;;24.00;58.60;;;;;;4985216;28;20183;-79
2022/05/27 03:30:27;;;;;;;6.07;3.30;;;23.90;58.70;;;;;;4978020;28;20282;-76
2022/05/27 03:32:55;;;;;;;7.17;3.17;;;24.10;58.10;;;;;;4990815;28;20200;-79
2022/05/27 03:35:31;;;;;;;6.73;2.83;;;24.00;59.00;;;;;;4992856;28;20189;-78
2022/05/27 03:37:59;;;;;;;6.50;3.03;;;24.20;57.40;;;;;;4994080;28;20234;-79
2022/05/27 03:40:43;;;;;;;9.97;3.20;;;24.30;56.80;;;;;;4980989;28;20331;-77
2022/05/27 03:43:12;;;;;;;10.93;3.00;;;24.30;56.10;;;;;;4974359;28;20210;-78
2022/05/27 03:45:55;;;;;;;8.87;2.87;;;24.00;58.10;;;;;;4978742;28;20253;-79
2022/05/27 03:48:23;;;;;;;9.97;3.17;;;24.00;57.10;;;;;;4993163;28;20229;-78
2022/05/27 03:50:53;;;;;;;10.53;3.30;;;24.30;56.90;;;;;;4993796;28;20252;-78
2022/05/27 03:53:21;;;;;;;6.23;2.97;;;24.50;55.90;;;;;;4994174;28;20232;-76
2022/05/27 03:55:48;;;;;;;6.47;2.63;;;24.50;56.70;;;;;;4993887;28;20641;-77
2022/05/27 03:58:17;;;;;;;6.70;2.40;;;24.70;55.50;;;;;;4993626;28;20174;-76
2022/05/27 04:00:45;;;;;;;8.77;2.60;;;24.80;55.30;;;;;;4993487;28;20265;-78
2022/05/27 04:03:13;;;;;;;6.93;2.37;;;24.80;55.70;;;;;;5000437;28;20243;-77
2022/05/27 04:05:40;;;;;;;7.67;2.20;;;25.20;55.10;;;;;;5013550;28;20180;-77
2022/05/27 04:08:08;;;;;;;10.17;2.17;;;25.30;54.30;;;;;;5013035;28;20216;-76
2022/05/27 04:10:35;;;;;;;5.37;2.13;;;25.00;54.10;;;;;;4989791;28;20181;-77
2022/05/27 04:13:03;;;;;;;4.67;2.20;;;24.80;54.60;;;;;;4993268;28;20538;-77
2022/05/27 04:15:30;;;;;;;9.13;2.60;;;25.20;54.80;;;;;;4993070;28;20181;-78
2022/05/27 04:17:57;;;;;;;8.00;2.27;;;25.40;53.20;;;;;;4993227;28;20674;-77
2022/05/27 04:20:25;;;;;;;11.43;2.50;;;25.40;53.40;;;;;;4994193;28;20196;-78
2022/05/27 04:22:56;;;;;;;4.60;1.83;;;25.80;52.20;;;;;;4993228;28;20176;-79
2022/05/27 04:25:24;;;;;;;8.40;1.50;;;26.00;51.40;;;;;;4993597;28;20170;-77
2022/05/27 04:27:51;;;;;;;7.60;2.10;;;26.10;50.40;;;;;;4978653;28;20174;-77
2022/05/27 04:30:20;;;;;;;9.97;2.07;;;25.70;52.10;;;;;;4973483;28;20635;-77
2022/05/27 04:32:47;;;;;;;4.97;1.53;;;25.90;51.80;;;;;;4988948;28;20541;-77
2022/05/27 04:35:15;;;;;;;6.13;1.87;;;26.00;51.10;;;;;;4993858;28;20169;-76
2022/05/27 04:37:42;;;;;;;5.40;1.77;;;25.70;52.30;;;;;;5004412;28;20185;-76
2022/05/27 04:40:10;;;;;;;7.97;2.03;;;25.80;51.20;;;;;;4990987;28;20190;-77
2022/05/27 04:42:37;;;;;;;5.00;1.70;;;25.70;52.50;;;;;;4973701;28;20249;-77
2022/05/27 04:45:05;;;;;;;6.07;1.67;;;26.30;50.30;;;;;;4973453;28;20166;-78
2022/05/27 04:47:33;;;;;;;5.10;1.73;;;26.30;50.00;;;;;;4973305;28;20190;-77
2022/05/27 04:50:04;;;;;;;6.00;1.80;;;26.30;50.20;;;;;;4973306;28;20230;-78
2022/05/27 04:52:33;;;;;;;4.63;1.70;;;26.10;50.80;;;;;;4973604;28;20183;-78
2022/05/27 04:55:03;;;;;;;6.07;2.63;;;26.60;49.70;;;;;;4987768;28;20178;-78
2022/05/27 04:57:34;;;;;;;4.27;1.47;;;26.70;49.70;;;;;;4991967;28;20182;-76
2022/05/27 05:00:14;;;;;;;9.10;1.73;;;26.40;49.40;;;;;;4991228;28;20193;-78
2022/05/27 05:02:43;;;;;;;7.50;2.10;;;26.40;50.30;;;;;;4991235;28;20189;-77
2022/05/27 05:05:14;;;;;;;4.30;1.30;;;26.70;48.90;;;;;;4991732;28;20181;-77
2022/05/27 05:07:43;;;;;;;7.20;1.77;;;26.90;48.30;;;;;;4992166;28;20170;-79
2022/05/27 05:10:14;;;;;;;6.97;1.80;;;27.10;47.90;;;;;;4992524;28;20227;-78
2022/05/27 05:12:43;;;;;;;6.27;1.43;;;26.70;47.70;;;;;;5011438;28;20181;-78
2022/05/27 05:15:12;;;;;;;4.67;1.57;;;26.20;49.40;;;;;;5012321;28;20181;-78
2022/05/27 05:17:41;;;;;;;4.97;1.60;;;26.10;50.20;;;;;;5012374;28;20169;-77
2022/05/27 05:20:09;;;;;;;5.60;1.10;;;26.70;48.90;;;;;;5012762;28;20612;-79
2022/05/27 05:22:37;;;;;;;5.17;1.73;;;26.60;49.20;;;;;;5012618;28;20185;-78
2022/05/27 05:25:05;;;;;;;8.03;1.73;;;27.00;47.50;;;;;;5002154;28;20584;-79
2022/05/27 05:27:34;;;;;;;4.53;1.60;;;27.30;46.90;;;;;;4999167;28;20241;-79
2022/05/27 05:30:05;;;;;;;8.37;1.50;;;27.20;46.80;;;;;;4980327;28;20273;-80
2022/05/27 05:32:32;;;;;;;6.70;1.60;;;26.60;47.80;;;;;;4979690;28;20656;-78
2022/05/27 05:35:00;;;;;;;3.43;1.00;;;26.50;47.50;;;;;;4992038;28;20178;-79
2022/05/27 05:37:28;;;;;;;2.87;1.20;;;26.30;48.50;;;;;;4998711;28;20208;-80
2022/05/27 05:39:55;;;;;;;3.17;1.13;;;26.00;48.60;;;;;;4989356;28;20293;-81
2022/05/27 05:42:23;;;;;;;2.23;1.03;;;26.00;48.30;;;;;;4995060;28;20209;-77
2022/05/27 05:44:51;;;;;;;4.97;1.03;;;26.30;48.10;;;;;;4995235;28;20535;-80
2022/05/27 05:47:18;;;;;;;2.57;1.20;;;25.80;48.80;;;;;;4994624;28;20280;-78
2022/05/27 05:49:46;;;;;;;2.70;1.07;;;25.90;48.70;;;;;;4976770;28;20309;-77
2022/05/27 05:52:13;;;;;;;5.13;1.30;;;25.40;50.30;;;;;;4991746;28;20200;-76
2022/05/27 05:54:40;;;;;;;2.83;2.00;;;25.20;50.40;;;;;;4991258;28;20190;-78
2022/05/27 05:57:08;;;;;;;5.23;1.10;;;24.80;52.10;;;;;;4976381;28;20261;-79
2022/05/27 05:59:38;;;;;;;3.33;1.00;;;24.90;51.60;;;;;;4978006;28;20174;-78
2022/05/27 06:02:07;;;;;;;7.40;6.57;;;24.90;52.10;;;;;;5000566;28;20260;-80
2022/05/27 06:04:35;;;;;;;10.73;5.27;;;25.10;51.10;;;;;;4995100;28;20185;-77
2022/05/27 06:07:03;;;;;;;2.83;1.33;;;24.80;51.60;;;;;;5009919;28;20173;-79
2022/05/27 06:09:30;;;;;;;3.27;1.00;;;24.00;54.30;;;;;;5003631;28;20210;-78
2022/05/27 06:12:02;;;;;;;6.90;1.50;;;22.90;58.00;;;;;;4995353;28;20178;-77
2022/05/27 06:14:33;;;;;;;3.70;1.40;;;22.40;60.10;;;;;;4997531;28;20181;-78
2022/05/27 06:17:00;;;;;;;5.80;1.10;;;22.30;61.10;;;;;;5014252;28;20534;-78
2022/05/27 06:19:28;;;;;;;8.40;1.47;;;22.10;61.50;;;;;;5014959;28;20536;-79
2022/05/27 06:21:56;;;;;;;1.93;0.90;;;21.50;63.10;;;;;;5000560;28;20190;-78
2022/05/27 06:24:23;;;;;;;8.17;1.50;;;21.20;64.10;;;;;;4990853;28;20182;-78
2022/05/27 06:26:51;;;;;;;6.23;1.37;;;21.00;65.40;;;;;;4979605;28;20189;-79
2022/05/27 06:34:49;;;;;;;4.63;1.50;;;20.40;68.00;;;;;;4991417;28;20193;-79
2022/05/27 06:37:19;;;;;;;5.37;1.43;;;20.30;68.90;;;;;;4994950;28;20182;-79
2022/05/27 06:39:47;;;;;;;5.43;1.67;;;20.30;69.10;;;;;;4994830;28;20276;-77
2022/05/27 06:42:16;;;;;;;15.60;13.37;;;20.20;69.60;;;;;;4994961;28;20575;-79
2022/05/27 06:44:44;;;;;;;12.33;5.53;;;20.00;70.00;;;;;;4994736;28;20178;-80
2022/05/27 06:47:13;;;;;;;5.23;2.00;;;19.90;70.20;;;;;;4975964;28;20175;-78
2022/05/27 06:49:44;;;;;;;7.67;1.70;;;19.80;70.60;;;;;;4988501;28;20309;-80
2022/05/27 06:52:13;;;;;;;10.10;1.60;;;19.70;71.00;;;;;;4994531;28;20189;-79
2022/05/27 06:54:42;;;;;;;10.47;1.50;;;19.70;71.60;;;;;;4990179;28;20189;-79
2022/05/27 06:57:09;;;;;;;7.83;1.80;;;19.60;72.00;;;;;;4993196;28;20178;-78
2022/05/27 06:59:38;;;;;;;8.03;2.13;;;19.50;72.60;;;;;;5001466;28;20323;-80
2022/05/27 07:02:05;;;;;;;10.40;2.10;;;19.50;73.00;;;;;;4993609;28;20193;-79
2022/05/27 07:04:33;;;;;;;7.67;1.90;;;19.40;73.50;;;;;;4994610;28;20193;-82
2022/05/27 07:07:02;;;;;;;3.53;1.70;;;19.30;73.70;;;;;;4996461;28;20532;-80
2022/05/27 07:09:35;;;;;;;7.30;2.07;;;19.30;74.00;;;;;;4993609;28;20683;-82
2022/05/27 07:12:05;;;;;;;11.07;5.67;;;19.20;74.30;;;;;;4994612;28;20585;-80
2022/05/27 07:14:33;;;;;;;11.07;5.67;;;19.20;74.70;;;;;;4994301;28;20538;-81
2022/05/27 07:17:01;;;;;;;14.87;7.57;;;19.10;75.10;;;;;;4994007;28;20271;-79
2022/05/27 07:19:29;;;;;;;21.60;10.30;;;19.00;75.60;;;;;;4994013;28;20198;-79
2022/05/27 07:21:56;;;;;;;15.30;3.97;;;19.00;75.90;;;;;;4999100;28;20287;-81
2022/05/27 07:24:25;;;;;;;9.23;3.37;;;18.90;76.10;;;;;;5026684;28;20208;-77
2022/05/27 07:26:52;;;;;;;8.67;3.23;;;18.90;76.50;;;;;;5005887;28;20247;-78
2022/05/27 07:29:20;;;;;;;9.67;4.40;;;18.80;76.80;;;;;;5003268;28;20228;-78
2022/05/27 07:31:48;;;;;;;10.03;4.27;;;18.80;77.10;;;;;;4984374;28;20207;-81
2022/05/27 07:34:15;;;;;;;9.23;4.90;;;18.70;77.20;;;;;;4986649;28;20186;-77
2022/05/27 07:36:43;;;;;;;8.27;3.43;;;18.60;77.60;;;;;;4998716;28;20186;-79
2022/05/27 07:39:10;;;;;;;10.03;4.83;;;18.60;78.00;;;;;;4987859;28;20265;-80
2022/05/27 07:41:39;;;;;;;9.00;4.70;;;18.60;78.10;;;;;;4973954;28;20181;-80
2022/05/27 07:44:07;;;;;;;16.27;8.47;;;18.50;78.00;;;;;;4993031;28;20276;-78
2022/05/27 07:46:37;;;;;;;9.73;7.50;;;18.50;78.30;;;;;;5011621;28;20587;-78
2022/05/27 07:49:07;;;;;;;8.80;4.50;;;18.50;78.50;;;;;;4977187;28;20226;-78
2022/05/27 07:51:34;;;;;;;8.43;3.90;;;18.40;78.80;;;;;;4978612;28;20178;-77
2022/05/27 07:54:02;;;;;;;9.07;3.70;;;18.40;79.10;;;;;;4993700;28;20181;-77
2022/05/27 07:56:29;;;;;;;32.30;22.37;;;18.40;79.30;;;;;;4993881;28;20174;-77
2022/05/27 07:58:57;;;;;;;31.03;20.83;;;18.30;79.60;;;;;;4993459;28;20181;-77
2022/05/27 08:01:25;;;;;;;21.90;11.57;;;18.30;79.80;;;;;;5001332;28;20269;-80
2022/05/27 08:03:52;;;;;;;11.93;4.77;;;18.30;80.30;;;;;;4993365;28;20217;-81
2022/05/27 08:06:19;;;;;;;10.10;3.50;;;18.30;80.50;;;;;;5006026;28;20215;-79
2022/05/27 08:08:48;;;;;;;7.57;3.70;;;18.30;80.50;;;;;;5012897;28;20232;-81
2022/05/27 08:11:15;;;;;;;8.53;3.20;;;18.20;80.80;;;;;;4981326;28;20193;-81
2022/05/27 08:13:43;;;;;;;8.37;3.73;;;18.20;81.00;;;;;;5013437;28;20208;-81
2022/05/27 08:16:10;;;;;;;6.23;4.00;;;18.10;81.10;;;;;;5012395;28;20522;-80
2022/05/27 08:18:39;;;;;;;16.63;4.60;;;18.10;81.10;;;;;;5012611;28;20190;-81
2022/05/27 08:21:06;;;;;;;10.83;3.90;;;18.00;81.30;;;;;;4988450;28;20329;-80
2022/05/27 08:23:34;;;;;;;9.87;4.53;;;17.90;81.40;;;;;;4992840;28;20248;-80
2022/05/27 08:26:02;;;;;;;8.57;4.10;;;17.80;81.90;;;;;;4983943;28;20273;-82
2022/05/27 08:28:30;;;;;;;7.23;2.80;;;17.80;82.50;;;;;;4976376;28;20224;-80
2022/05/27 08:30:59;;;;;;;8.67;3.20;;;17.80;83.00;;;;;;4979664;28;20528;-80
2022/05/27 08:38:01;;;;;;;10.20;4.10;;;17.80;83.00;;;;;;4992952;28;20193;-80
2022/05/27 08:39:13;;;;;;;11.07;3.67;;;17.70;83.20;;;;;;4976584;28;20264;-79
2022/05/27 08:42:16;;;;;;;7.90;4.20;;;17.60;83.80;;;;;;4992933;28;20283;-81
2022/05/27 08:44:55;;;;;;;9.13;4.00;;;17.50;83.70;;;;;;4982035;28;20267;-77
2022/05/27 08:47:34;;;;;;;9.23;3.03;;;17.50;83.90;;;;;;4991807;28;20677;-80
2022/05/27 08:50:47;;;;;;;6.73;3.00;;;17.50;84.20;;;;;;4992945;28;20262;-80
2022/05/27 08:53:45;;;;;;;15.90;5.67;;;17.40;84.30;;;;;;4973291;28;20240;-78
2022/05/27 08:59:31;;;;;;;36.70;21.37;;;17.40;84.60;;;;;;5002204;28;20229;-80
2022/05/27 09:02:20;;;;;;;28.83;18.63;;;17.40;84.80;;;;;;4980822;28;20214;-81
2022/05/27 09:05:04;;;;;;;21.57;11.23;;;17.40;84.90;;;;;;4992747;28;20248;-81
2022/05/27 09:08:12;;;;;;;19.57;9.03;;;17.40;85.00;;;;;;4987017;28;20605;-80
2022/05/27 09:11:13;;;;;;;72.70;36.63;;;17.40;84.80;;;;;;4987819;28;20215;-80
2022/05/27 09:14:05;;;;;;;66.00;25.30;;;17.40;84.50;;;;;;4992628;28;20341;-81
2022/05/27 09:16:46;;;;;;;29.00;11.57;;;17.30;84.40;;;;;;4998619;28;20176;-80
2022/05/27 09:19:32;;;;;;;27.53;10.70;;;17.30;84.20;;;;;;5013085;28;20245;-81
2022/05/27 09:22:08;;;;;;;30.37;12.03;;;17.30;84.00;;;;;;5001519;28;20188;-80
2022/05/27 09:24:57;;;;;;;37.50;16.93;;;17.30;84.10;;;;;;4995466;28;20176;-82
2022/05/27 09:27:40;;;;;;;34.37;14.50;;;17.20;84.00;;;;;;4977547;28;20169;-81
2022/05/27 09:30:13;;;;;;;26.63;11.13;;;17.20;84.30;;;;;;4996449;28;20241;-81
2022/05/27 09:33:02;;;;;;;19.20;9.40;;;17.10;84.70;;;;;;4998337;28;20182;-81
2022/05/27 09:35:46;;;;;;;16.70;8.23;;;17.00;84.90;;;;;;5005924;28;20234;-79
2022/05/27 09:38:27;;;;;;;15.23;6.50;;;17.00;85.20;;;;;;4998045;28;20211;-78
2022/05/27 09:40:57;;;;;;;24.30;9.57;;;17.00;85.20;;;;;;4981405;28;20191;-80
2022/05/27 09:43:49;;;;;;;20.63;10.10;;;17.00;85.20;;;;;;4996431;28;20220;-79
2022/05/27 09:46:38;;;;;;;24.60;9.97;;;16.90;85.50;;;;;;5009350;28;20272;-80
2022/05/27 09:49:07;;;;;;;19.53;6.30;;;16.90;85.60;;;;;;4995959;28;20692;-80
2022/05/27 09:51:34;;;;;;;13.20;4.50;;;16.90;85.60;;;;;;4996240;28;20624;-81
2022/05/27 09:54:30;;;;;;;13.20;4.60;;;16.80;85.80;;;;;;4995365;28;20181;-80
2022/05/27 09:57:23;;;;;;;10.60;4.90;;;16.80;85.90;;;;;;4995690;28;20224;-79
2022/05/27 09:59:57;;;;;;;13.57;6.57;;;16.80;86.00;;;;;;4994003;28;20181;-81
2022/05/27 10:02:33;;;;;;;13.07;6.27;;;16.80;86.00;;;;;;4995793;28;20714;-77
2022/05/27 10:05:03;;;;;;;16.63;8.60;;;16.70;86.20;;;;;;4995155;28;20191;-80
2022/05/27 10:07:49;;;;;;;15.87;8.70;;;16.80;86.10;;;;;;4995702;28;20182;-77
2022/05/27 10:10:36;;;;;;;15.70;5.97;;;16.80;86.10;;;;;;4995138;28;20220;-78
2022/05/27 10:13:23;;;;;;;11.93;4.77;;;16.70;86.10;;;;;;4995774;28;20175;-79
2022/05/27 10:15:51;;;;;;;11.50;4.83;;;16.80;86.30;;;;;;4996331;28;20211;-77
2022/05/27 10:18:21;;;;;;;14.40;4.60;;;16.70;86.30;;;;;;4997087;28;20648;-81
2022/05/27 10:21:01;;;;;;;13.47;4.20;;;16.70;86.40;;;;;;5009350;28;20181;-80
2022/05/27 10:23:35;;;;;;;10.80;4.30;;;16.70;86.40;;;;;;5015105;28;20174;-80
2022/05/27 10:26:20;;;;;;;8.50;4.40;;;16.70;86.50;;;;;;4986072;28;20184;-79
2022/05/27 10:29:01;;;;;;;10.93;5.20;;;16.70;86.50;;;;;;4994130;28;20237;-80
2022/05/27 10:31:30;;;;;;;10.17;5.20;;;16.60;86.70;;;;;;4995250;28;20186;-79
2022/05/27 10:33:58;;;;;;;16.63;5.83;;;16.60;86.60;;;;;;4994317;28;20204;-81
2022/05/27 10:36:49;;;;;;;14.20;5.20;;;16.60;86.70;;;;;;4995515;28;20181;-82
2022/05/27 10:39:48;;;;;;;13.47;5.30;;;16.60;87.10;;;;;;5005808;28;20272;-80
2022/05/27 10:42:48;;;;;;;16.13;5.63;;;16.60;86.80;;;;;;4994471;28;20216;-80
2022/05/27 10:45:39;;;;;;;17.30;6.17;;;16.60;87.10;;;;;;4973756;28;20212;-80
2022/05/27 10:48:15;;;;;;;11.13;5.20;;;16.50;87.00;;;;;;4980946;28;20227;-81
2022/05/27 10:51:00;;;;;;;11.73;5.03;;;16.50;87.30;;;;;;5013662;28;20202;-81
2022/05/27 10:53:43;;;;;;;12.27;4.83;;;16.50;87.40;;;;;;5003516;28;20540;-81
2022/05/27 10:56:19;;;;;;;14.60;5.17;;;16.40;87.40;;;;;;4994477;28;20647;-81
2022/05/27 11:02:05;;;;;;;12.93;4.40;;;16.30;87.50;;;;;;4994195;28;20208;-80
2022/05/27 11:04:54;;;;;;;12.30;4.17;;;16.20;87.70;;;;;;4977984;28;20208;-81
2022/05/27 11:07:38;;;;;;;12.17;4.10;;;16.20;87.70;;;;;;4997311;28;20196;-81
2022/05/27 11:10:45;;;;;;;14.53;5.23;;;16.10;87.90;;;;;;5003224;28;20379;-81
2022/05/27 11:16:33;;;;;;;13.53;6.20;;;16.10;88.30;;;;;;4993770;28;20189;-80
2022/05/27 11:19:31;;;;;;;9.97;5.60;;;16.00;88.40;;;;;;4993879;28;20208;-80
2022/05/27 11:22:17;;;;;;;9.90;5.07;;;16.00;88.50;;;;;;4994750;28;20175;-79
2022/05/27 11:24:48;;;;;;;11.87;4.50;;;16.00;88.70;;;;;;4993363;28;20196;-79
2022/05/27 11:27:36;;;;;;;9.30;4.63;;;16.10;89.00;;;;;;4993816;28;20177;-81
2022/05/27 11:30:11;;;;;;;11.03;4.40;;;16.10;88.80;;;;;;4993336;28;20689;-80
2022/05/27 11:33:21;;;;;;;9.40;4.50;;;16.10;89.00;;;;;;4994092;28;20166;-81
2022/05/27 11:35:54;;;;;;;12.27;4.60;;;16.10;88.90;;;;;;4992324;28;20170;-78
2022/05/27 11:38:38;;;;;;;10.23;4.50;;;16.10;89.10;;;;;;4992304;28;20237;-80
2022/05/27 11:41:34;;;;;;;10.00;5.00;;;16.10;89.20;;;;;;4993500;28;20189;-78
2022/05/27 11:44:13;;;;;;;9.50;4.67;;;16.10;89.40;;;;;;4974578;28;20198;-79
2022/05/27 11:46:52;;;;;;;10.33;4.90;;;16.10;89.10;;;;;;4974517;28;20172;-77
2022/05/27 11:49:49;;;;;;;12.57;4.60;;;16.00;89.20;;;;;;4988493;28;20227;-78
2022/05/27 11:52:39;;;;;;;10.53;4.97;;;16.00;89.20;;;;;;4992283;28;20498;-78
2022/05/27 11:55:27;;;;;;;9.50;4.70;;;15.90;89.20;;;;;;4992413;28;20283;-78
2022/05/27 11:58:18;;;;;;;10.97;4.33;;;15.90;89.40;;;;;;4993896;28;20272;-78
2022/05/27 12:01:26;;;;;;;12.50;3.97;;;15.90;89.50;;;;;;4984529;28;20180;-77
2022/05/27 12:04:10;;;;;;;8.47;4.20;;;15.80;89.60;;;;;;4984349;28;20179;-79
2022/05/27 12:06:49;;;;;;;8.37;4.50;;;15.80;89.60;;;;;;4992278;28;20662;-78
2022/05/27 12:09:50;;;;;;;10.93;4.67;;;15.70;89.70;;;;;;4992426;28;20298;-77
2022/05/27 12:12:33;;;;;;;14.13;5.20;;;15.70;89.70;;;;;;4982761;28;20197;-77
2022/05/27 12:15:06;;;;;;;16.60;6.03;;;15.70;90.00;;;;;;4993404;28;20175;-76
2022/05/27 12:17:48;;;;;;;12.97;5.60;;;15.70;90.10;;;;;;5010618;28;20196;-80
2022/05/27 12:20:26;;;;;;;12.60;5.83;;;15.70;90.10;;;;;;5013506;28;20689;-79
2022/05/27 12:22:55;;;;;;;14.83;6.00;;;15.60;90.20;;;;;;4997896;28;20288;-79
2022/05/27 12:25:29;;;;;;;10.83;5.00;;;15.60;90.10;;;;;;4986327;28;20649;-78
2022/05/27 12:28:00;;;;;;;8.50;4.70;;;15.50;90.10;;;;;;4974519;28;20283;-76
2022/05/27 12:30:41;;;;;;;12.10;5.37;;;15.50;90.10;;;;;;4972953;28;20315;-77
2022/05/27 12:33:15;;;;;;;11.93;4.73;;;15.50;90.60;;;;;;4994002;28;20178;-76
2022/05/27 12:35:47;;;;;;;12.00;5.07;;;15.50;90.50;;;;;;4992945;28;20576;-76
2022/05/27 12:38:16;;;;;;;11.77;5.00;;;15.50;90.60;;;;;;4993878;28;20970;-80
2022/05/27 12:40:50;;;;;;;9.60;4.73;;;15.50;90.60;;;;;;4993202;28;20194;-78
2022/05/27 12:43:22;;;;;;;11.87;5.53;;;15.40;90.60;;;;;;4992451;28;20265;-81
2022/05/27 12:46:01;;;;;;;9.13;4.70;;;15.40;90.80;;;;;;4992768;28;20187;-79
2022/05/27 12:48:46;;;;;;;17.53;4.93;;;15.40;90.80;;;;;;4993216;28;20235;-81
2022/05/27 12:51:16;;;;;;;8.90;4.33;;;15.30;91.00;;;;;;4993822;28;20245;-80
2022/05/27 12:53:46;;;;;;;9.50;4.87;;;15.30;91.20;;;;;;4993020;28;20688;-78
2022/05/27 13:02:16;;;;;;;10.73;5.03;;;15.30;91.20;;;;;;4993282;28;20238;-81
2022/05/27 13:04:50;;;;;;;12.27;5.10;;;15.30;91.00;;;;;;4992975;28;20240;-82
2022/05/27 13:07:41;;;;;;;16.23;5.40;;;15.30;91.10;;;;;;4994266;28;20174;-81
2022/05/27 13:10:17;;;;;;;9.80;4.80;;;15.30;91.10;;;;;;4984259;28;20223;-78
2022/05/27 13:13:01;;;;;;;8.17;5.10;;;15.40;91.20;;;;;;4993539;28;20174;-76
2022/05/27 13:15:43;;;;;;;17.47;5.77;;;15.30;91.10;;;;;;4991195;28;20186;-80
2022/05/27 13:18:31;;;;;;;10.13;5.10;;;15.30;91.00;;;;;;4993199;28;20166;-82
2022/05/27 13:21:02;;;;;;;13.53;5.57;;;15.20;91.10;;;;;;4973801;28;20243;-81
2022/05/27 13:23:31;;;;;;;12.67;5.43;;;15.20;91.20;;;;;;4976443;28;20167;-79
2022/05/27 13:26:13;;;;;;;10.53;5.03;;;15.20;91.20;;;;;;4993047;28;20269;-82
2022/05/27 13:28:53;;;;;;;8.87;4.23;;;15.10;91.30;;;;;;4992575;28;20289;-78
2022/05/27 13:31:24;;;;;;;10.63;5.10;;;15.00;91.20;;;;;;4992496;28;20170;-79
2022/05/27 13:33:59;;;;;;;9.93;5.10;;;14.90;91.10;;;;;;4993234;28;20178;-76
2022/05/27 13:36:38;;;;;;;10.63;5.40;;;14.90;91.20;;;;;;4991939;28;20600;-79
2022/05/27 13:39:11;;;;;;;9.27;5.37;;;14.80;91.40;;;;;;4990377;28;20236;-79
2022/05/27 13:41:47;;;;;;;13.43;5.47;;;14.80;91.50;;;;;;4995218;28;20181;-81
2022/05/27 13:44:17;;;;;;;9.47;5.33;;;14.80;91.70;;;;;;5012422;28;20223;-82
2022/05/27 13:46:48;;;;;;;14.60;5.70;;;14.80;91.70;;;;;;4993212;28;20191;-75
2022/05/27 13:49:44;;;;;;;13.10;5.87;;;14.80;91.60;;;;;;4983843;28;20759;-75
2022/05/27 13:52:22;;;;;;;14.43;6.17;;;14.80;91.60;;;;;;4977856;28;20187;-76